Time;durP1;ratioP1;P1;durP2;ratioP2;P2;SDS_P1;SDS_P2;PMS_P1;PMS_P2;Temp;Humidity;BMP_temperature;BMP_pressure;BME280_temperature;BME280_humidity;BME280_pressure;Samples;Min_cycle;Max_cycle;Signal;HPM_P1;HPM_P2
2023/03/27 00:00:52;;;;;;;2.03;0.55;;;6.90;99.90;;;;;;4986316;28;20194;-73
2023/03/27 00:03:19;;;;;;;0.38;0.30;;;6.90;99.90;;;;;;5003457;28;20478;-73
2023/03/27 00:05:45;;;;;;;1.25;0.38;;;6.80;99.90;;;;;;4987852;28;20088;-72
2023/03/27 00:08:12;;;;;;;1.95;0.30;;;6.80;99.90;;;;;;4997473;28;20035;-72
2023/03/27 00:10:38;;;;;;;1.90;0.60;;;6.80;99.90;;;;;;5002813;28;20022;-73
2023/03/27 00:13:05;;;;;;;3.47;0.40;;;6.80;99.90;;;;;;4998082;28;20441;-73
2023/03/27 00:15:32;;;;;;;1.13;0.43;;;6.80;99.90;;;;;;4996933;28;20114;-72
2023/03/27 00:18:02;;;;;;;2.05;0.50;;;6.80;99.90;;;;;;4996450;28;20026;-73
2023/03/27 00:20:30;;;;;;;6.95;0.90;;;6.80;99.90;;;;;;4994775;28;20030;-72
2023/03/27 00:22:56;;;;;;;0.98;0.32;;;6.80;99.90;;;;;;4986926;28;20037;-73
2023/03/27 00:25:23;;;;;;;2.78;0.52;;;6.80;99.90;;;;;;4983758;28;20149;-73
2023/03/27 00:27:49;;;;;;;2.05;0.35;;;6.80;99.90;;;;;;5004635;28;20479;-72
2023/03/27 00:30:16;;;;;;;0.50;0.20;;;6.80;99.90;;;;;;4986824;28;20036;-72
2023/03/27 00:32:42;;;;;;;1.95;0.40;;;6.80;99.90;;;;;;5002037;28;20023;-72
2023/03/27 00:35:08;;;;;;;1.73;0.30;;;6.80;99.90;;;;;;4988140;28;20107;-72
2023/03/27 00:37:35;;;;;;;2.03;0.40;;;6.80;99.90;;;;;;5002606;28;20110;-73
2023/03/27 00:40:02;;;;;;;0.68;0.30;;;6.80;99.90;;;;;;5004669;28;20092;-73
2023/03/27 00:42:30;;;;;;;1.45;0.63;;;6.70;99.90;;;;;;4998027;28;20014;-72
2023/03/27 00:44:56;;;;;;;0.47;0.30;;;6.80;99.90;;;;;;5003612;28;20103;-72
2023/03/27 00:47:32;;;;;;;1.10;0.30;;;6.80;99.90;;;;;;5000410;28;20034;-73
2023/03/27 00:50:00;;;;;;;0.60;0.30;;;6.80;99.90;;;;;;5003527;28;20371;-73
2023/03/27 00:52:28;;;;;;;1.08;0.28;;;6.70;99.90;;;;;;5008094;28;20021;-72
2023/03/27 00:54:56;;;;;;;2.88;0.40;;;6.70;99.90;;;;;;4986225;28;20042;-74
2023/03/27 00:57:24;;;;;;;0.90;0.60;;;6.60;99.90;;;;;;4987314;28;20033;-72
2023/03/27 00:59:53;;;;;;;0.55;0.32;;;6.60;99.90;;;;;;4985805;28;20036;-72
2023/03/27 01:02:20;;;;;;;1.20;0.50;;;6.50;99.90;;;;;;5002434;28;20108;-73
2023/03/27 01:04:47;;;;;;;0.22;0.20;;;6.50;99.90;;;;;;5003646;28;20034;-70
2023/03/27 01:07:14;;;;;;;0.60;0.22;;;6.50;99.90;;;;;;5002915;28;20103;-71
2023/03/27 01:09:40;;;;;;;1.25;0.40;;;6.50;99.90;;;;;;5002458;28;20026;-73
2023/03/27 01:12:31;;;;;;;0.20;0.20;;;6.40;99.90;;;;;;5004723;28;20499;-72
2023/03/27 01:15:19;;;;;;;0.17;0.17;;;6.40;99.90;;;;;;5006816;28;20499;-72
2023/03/27 01:18:06;;;;;;;0.25;0.20;;;6.30;99.90;;;;;;5004792;28;20027;-72
2023/03/27 01:20:56;;;;;;;0.45;0.30;;;6.20;99.90;;;;;;4984813;28;20383;-73
2023/03/27 01:24:04;;;;;;;0.20;0.20;;;6.20;99.90;;;;;;5002185;28;20072;-74
2023/03/27 01:26:33;;;;;;;1.25;0.30;;;6.10;99.90;;;;;;5005992;28;20025;-72
2023/03/27 01:29:20;;;;;;;0.50;0.30;;;6.00;99.90;;;;;;4997856;28;20031;-73
2023/03/27 01:32:06;;;;;;;0.90;0.32;;;6.00;99.90;;;;;;5001517;28;20019;-73
2023/03/27 01:34:46;;;;;;;0.43;0.22;;;6.00;99.90;;;;;;5006184;28;20041;-73
2023/03/27 01:37:27;;;;;;;0.50;0.20;;;5.90;99.90;;;;;;4999166;28;20022;-74
2023/03/27 01:40:21;;;;;;;0.30;0.30;;;5.90;99.90;;;;;;4987192;28;20061;-74
2023/03/27 01:42:53;;;;;;;0.43;0.40;;;5.90;99.90;;;;;;4987704;28;20573;-73
2023/03/27 01:45:30;;;;;;;0.20;0.20;;;5.90;99.90;;;;;;5003607;28;20030;-74
2023/03/27 01:48:02;;;;;;;0.60;0.30;;;5.90;99.90;;;;;;4990832;28;20026;-73
2023/03/27 01:50:48;;;;;;;1.63;0.40;;;5.90;99.90;;;;;;4999454;28;20437;-73
2023/03/27 01:53:37;;;;;;;0.38;0.38;;;5.90;99.90;;;;;;4997277;28;20116;-73
2023/03/27 01:56:12;;;;;;;0.63;0.50;;;5.90;99.90;;;;;;4987782;28;20534;-72
2023/03/27 01:58:45;;;;;;;0.85;0.60;;;5.90;99.90;;;;;;5005826;28;20031;-74
2023/03/27 02:01:21;;;;;;;0.43;0.30;;;5.90;99.90;;;;;;5005050;28;20026;-73
2023/03/27 02:03:54;;;;;;;1.50;0.30;;;5.90;99.90;;;;;;4988165;28;20402;-72
2023/03/27 02:06:27;;;;;;;0.40;0.40;;;5.80;99.90;;;;;;5008374;28;20030;-72
2023/03/27 02:09:05;;;;;;;0.65;0.45;;;5.80;99.90;;;;;;4986599;28;20521;-71
2023/03/27 02:11:44;;;;;;;0.68;0.45;;;5.80;99.90;;;;;;5008202;28;20033;-73
2023/03/27 02:14:25;;;;;;;1.05;0.50;;;5.70;99.90;;;;;;5000342;28;20023;-72
2023/03/27 02:16:56;;;;;;;0.45;0.40;;;5.70;99.90;;;;;;5006719;28;20026;-73
2023/03/27 02:19:29;;;;;;;0.70;0.30;;;5.70;99.90;;;;;;4990605;28;20084;-72
2023/03/27 02:21:54;;;;;;;0.30;0.20;;;5.70;99.90;;;;;;5002894;28;20026;-72
2023/03/27 02:24:21;;;;;;;1.08;0.38;;;5.60;99.90;;;;;;5003796;28;20079;-73
2023/03/27 02:26:53;;;;;;;1.25;0.30;;;5.50;99.90;;;;;;5004417;28;20105;-72
2023/03/27 02:29:25;;;;;;;0.10;0.10;;;5.50;99.90;;;;;;5002049;28;20026;-73
2023/03/27 02:32:04;;;;;;;0.30;0.20;;;5.50;99.90;;;;;;5003092;28;20419;-73
2023/03/27 02:35:16;;;;;;;0.20;0.20;;;5.40;99.90;;;;;;5006045;28;20027;-73
2023/03/27 02:37:48;;;;;;;0.22;0.15;;;5.40;99.90;;;;;;4929028;29;20572;-75
2023/03/27 02:40:22;;;;;;;0.93;0.50;;;5.40;99.90;;;;;;4914244;29;20028;-74
2023/03/27 02:43:06;;;;;;;1.08;0.43;;;5.30;99.90;;;;;;4964120;28;20043;-74
2023/03/27 02:45:55;;;;;;;5.90;1.77;;;5.30;99.90;;;;;;4986023;28;20492;-73
2023/03/27 02:48:39;;;;;;;4.85;1.58;;;5.30;99.90;;;;;;5002752;28;20019;-75
2023/03/27 02:51:35;;;;;;;9.07;2.47;;;5.20;99.90;;;;;;5001590;28;20033;-73
2023/03/27 02:54:08;;;;;;;4.93;2.33;;;5.20;99.90;;;;;;4961175;28;20491;-75
2023/03/27 02:56:39;;;;;;;5.03;2.70;;;5.20;99.90;;;;;;5006268;28;20026;-74
2023/03/27 02:59:12;;;;;;;5.15;2.42;;;5.10;99.90;;;;;;4987745;28;20038;-72
2023/03/27 03:01:39;;;;;;;6.28;2.95;;;5.00;99.90;;;;;;5002423;28;20046;-73
2023/03/27 03:04:19;;;;;;;7.03;2.80;;;4.90;99.90;;;;;;5001603;28;20025;-74
2023/03/27 03:06:45;;;;;;;7.75;3.47;;;4.90;99.90;;;;;;4989468;28;20088;-72
2023/03/27 03:09:13;;;;;;;7.00;3.42;;;4.90;99.90;;;;;;5007652;28;20097;-73
2023/03/27 03:11:46;;;;;;;5.65;3.58;;;4.90;99.90;;;;;;5007103;28;20049;-73
2023/03/27 03:14:12;;;;;;;5.88;3.28;;;4.80;99.90;;;;;;4999535;28;20022;-73
2023/03/27 03:16:37;;;;;;;7.95;3.47;;;4.80;99.90;;;;;;5005924;28;20018;-73
2023/03/27 03:19:03;;;;;;;9.07;3.30;;;4.80;99.90;;;;;;5005683;28;20034;-74
2023/03/27 03:21:28;;;;;;;6.57;3.75;;;4.80;99.90;;;;;;5004035;28;20030;-73
2023/03/27 03:23:54;;;;;;;8.15;3.45;;;4.80;99.90;;;;;;5005912;28;20033;-73
2023/03/27 03:26:20;;;;;;;8.32;3.55;;;4.70;99.90;;;;;;5005928;28;20045;-73
2023/03/27 03:28:46;;;;;;;8.90;3.65;;;4.70;99.90;;;;;;5007835;28;20025;-74
2023/03/27 03:31:12;;;;;;;8.13;3.97;;;4.70;99.90;;;;;;5003889;28;20483;-74
2023/03/27 03:33:38;;;;;;;8.02;3.90;;;4.60;99.90;;;;;;4984921;28;20030;-74
2023/03/27 03:36:04;;;;;;;9.95;3.47;;;4.60;99.90;;;;;;4985279;28;20044;-73
2023/03/27 03:38:33;;;;;;;14.95;3.58;;;4.60;99.90;;;;;;5006413;28;20036;-73
2023/03/27 03:41:00;;;;;;;8.68;3.30;;;4.60;99.90;;;;;;5003976;28;20023;-73
2023/03/27 03:43:28;;;;;;;12.32;3.75;;;4.50;99.90;;;;;;4999967;28;20467;-73
2023/03/27 03:45:54;;;;;;;8.25;3.10;;;4.40;99.90;;;;;;5008768;28;20026;-73
2023/03/27 03:48:20;;;;;;;11.68;3.60;;;4.40;99.90;;;;;;5004834;28;20033;-73
2023/03/27 03:50:47;;;;;;;9.68;2.65;;;4.30;99.90;;;;;;5002904;28;20102;-73
2023/03/27 03:53:19;;;;;;;8.93;2.72;;;4.20;99.90;;;;;;5006432;28;20441;-73
2023/03/27 03:55:47;;;;;;;7.32;2.80;;;4.20;99.90;;;;;;5005030;28;20031;-73
2023/03/27 03:58:13;;;;;;;9.02;2.90;;;4.20;99.90;;;;;;5000567;28;20574;-74
2023/03/27 04:00:39;;;;;;;9.93;2.50;;;4.20;99.90;;;;;;5001756;28;20027;-72
2023/03/27 04:03:07;;;;;;;7.65;2.45;;;4.10;99.90;;;;;;5009576;28;20030;-72
2023/03/27 04:05:34;;;;;;;9.77;2.75;;;4.20;99.90;;;;;;5007600;28;20022;-72
2023/03/27 04:07:59;;;;;;;8.52;2.70;;;4.20;99.90;;;;;;5003556;28;20030;-74
2023/03/27 04:10:26;;;;;;;13.60;2.67;;;4.20;99.90;;;;;;5004480;28;20620;-72
2023/03/27 04:12:52;;;;;;;8.40;2.05;;;4.20;99.90;;;;;;5004106;28;20029;-72
2023/03/27 04:15:18;;;;;;;7.47;2.17;;;4.30;99.90;;;;;;4990055;28;20505;-71
2023/03/27 04:17:44;;;;;;;8.60;2.67;;;4.30;99.90;;;;;;4992550;28;20057;-71
2023/03/27 04:20:11;;;;;;;15.38;3.13;;;4.30;99.90;;;;;;5006548;28;20419;-71
2023/03/27 04:22:37;;;;;;;13.05;2.95;;;4.30;99.90;;;;;;5007282;28;20096;-72
2023/03/27 04:25:07;;;;;;;11.18;2.75;;;4.30;99.90;;;;;;5005314;28;20030;-71
2023/03/27 04:27:34;;;;;;;6.40;2.35;;;4.40;99.90;;;;;;5005739;28;20030;-73
2023/03/27 04:30:01;;;;;;;12.13;2.60;;;4.40;99.90;;;;;;5006580;28;20116;-72
2023/03/27 04:32:27;;;;;;;10.65;2.53;;;4.40;99.90;;;;;;5008832;28;20451;-72
2023/03/27 04:34:53;;;;;;;10.88;2.13;;;4.40;99.90;;;;;;5007586;28;20034;-72
2023/03/27 04:37:20;;;;;;;12.75;2.50;;;4.40;99.90;;;;;;5007050;28;20026;-72
2023/03/27 04:39:45;;;;;;;11.95;2.28;;;4.40;99.90;;;;;;5001028;28;20069;-72
2023/03/27 04:42:13;;;;;;;8.73;2.88;;;4.30;99.90;;;;;;5004115;28;20065;-72
2023/03/27 04:44:39;;;;;;;10.85;2.25;;;4.40;99.90;;;;;;5003872;28;20030;-72
2023/03/27 04:47:06;;;;;;;11.43;1.85;;;4.30;99.90;;;;;;5006189;28;20152;-71
2023/03/27 04:49:37;;;;;;;11.57;1.80;;;4.30;99.90;;;;;;5003068;28;20032;-72
2023/03/27 04:52:04;;;;;;;10.45;2.05;;;4.30;99.90;;;;;;5004502;28;20018;-71
2023/03/27 04:54:30;;;;;;;6.75;2.08;;;4.20;99.90;;;;;;5006393;28;21506;-71
2023/03/27 04:56:56;;;;;;;11.73;2.33;;;4.10;99.90;;;;;;5002422;28;20031;-71
2023/03/27 04:59:22;;;;;;;12.15;2.28;;;4.10;99.90;;;;;;5008563;28;20030;-74
2023/03/27 05:01:49;;;;;;;7.65;2.90;;;4.00;99.90;;;;;;5007970;28;20079;-75
2023/03/27 05:04:15;;;;;;;9.93;3.10;;;4.00;99.90;;;;;;5001283;28;20034;-75
2023/03/27 05:06:41;;;;;;;11.23;2.88;;;4.00;99.90;;;;;;5006392;28;20026;-75
2023/03/27 05:09:07;;;;;;;9.10;2.40;;;4.00;99.90;;;;;;5006055;28;20030;-75
2023/03/27 05:11:33;;;;;;;8.82;2.55;;;4.00;99.90;;;;;;5009050;28;20026;-75
2023/03/27 05:13:59;;;;;;;11.27;2.17;;;4.00;99.90;;;;;;5006863;28;20190;-72
2023/03/27 05:16:25;;;;;;;9.43;2.97;;;4.00;99.90;;;;;;5004996;28;20048;-72
2023/03/27 05:18:51;;;;;;;12.80;2.70;;;3.80;99.90;;;;;;5008461;28;20037;-72
2023/03/27 05:21:16;;;;;;;11.27;2.70;;;3.80;99.90;;;;;;5001633;28;20019;-72
2023/03/27 05:23:42;;;;;;;15.00;3.10;;;3.70;99.90;;;;;;5003903;28;20041;-72
2023/03/27 05:26:08;;;;;;;11.02;2.60;;;3.60;99.90;;;;;;5000228;28;20022;-71
2023/03/27 05:28:34;;;;;;;12.52;2.78;;;3.60;99.90;;;;;;5006684;28;20044;-72
2023/03/27 05:31:00;;;;;;;9.40;2.83;;;3.60;99.90;;;;;;4989122;28;20073;-73
2023/03/27 05:33:26;;;;;;;11.77;2.80;;;3.60;99.90;;;;;;5002157;28;20034;-73
2023/03/27 05:35:52;;;;;;;7.93;2.25;;;3.60;99.90;;;;;;5002271;28;20097;-72
2023/03/27 05:38:18;;;;;;;12.65;2.70;;;3.60;99.90;;;;;;4995930;28;20426;-72
2023/03/27 05:40:44;;;;;;;9.82;2.83;;;3.60;99.90;;;;;;5008084;28;20026;-71
2023/03/27 05:43:10;;;;;;;12.65;2.72;;;3.60;99.90;;;;;;5002160;28;20034;-71
2023/03/27 05:45:36;;;;;;;8.63;2.35;;;3.60;99.90;;;;;;5004343;28;20105;-71
2023/03/27 05:48:03;;;;;;;10.77;2.13;;;3.60;99.90;;;;;;5004034;28;20018;-72
2023/03/27 05:50:32;;;;;;;10.98;2.60;;;3.60;99.90;;;;;;5009908;28;20112;-70
2023/03/27 05:53:01;;;;;;;12.38;2.10;;;3.60;99.90;;;;;;5003395;28;20095;-74
2023/03/27 05:55:27;;;;;;;8.55;2.03;;;3.50;99.90;;;;;;5001769;28;20383;-72
2023/03/27 05:57:52;;;;;;;8.60;2.13;;;3.40;99.90;;;;;;5001581;28;20037;-70
2023/03/27 06:00:24;;;;;;;14.77;1.95;;;3.40;99.90;;;;;;5005960;28;20026;-74
2023/03/27 06:02:55;;;;;;;7.80;1.70;;;3.40;99.90;;;;;;5002688;28;20502;-73
2023/03/27 06:05:20;;;;;;;10.23;1.80;;;3.40;99.90;;;;;;5006575;28;20029;-74
2023/03/27 06:07:46;;;;;;;9.23;1.80;;;3.40;99.90;;;;;;5003537;28;20018;-72
2023/03/27 06:10:16;;;;;;;11.93;1.85;;;3.40;99.90;;;;;;4983206;28;20061;-72
2023/03/27 06:12:43;;;;;;;6.05;1.67;;;3.40;99.90;;;;;;5006084;28;20076;-72
2023/03/27 06:15:10;;;;;;;10.95;2.50;;;3.40;99.90;;;;;;5002756;28;20018;-74
2023/03/27 06:17:38;;;;;;;14.70;2.15;;;3.40;99.90;;;;;;4999715;28;20388;-75
2023/03/27 06:20:11;;;;;;;14.43;2.60;;;3.30;99.90;;;;;;5001615;28;20037;-73
2023/03/27 06:22:41;;;;;;;6.00;1.85;;;3.30;99.90;;;;;;4999935;28;20041;-73
2023/03/27 06:25:07;;;;;;;11.63;1.60;;;3.20;99.90;;;;;;5002215;28;20034;-74
2023/03/27 06:27:33;;;;;;;4.47;1.33;;;3.20;99.90;;;;;;4984386;28;20082;-74
2023/03/27 06:29:59;;;;;;;6.38;1.77;;;3.10;99.90;;;;;;4984428;28;20030;-73
2023/03/27 06:32:24;;;;;;;10.40;2.00;;;3.20;99.90;;;;;;5001352;28;20483;-74
2023/03/27 06:34:50;;;;;;;7.30;1.42;;;3.10;99.90;;;;;;5002929;28;20470;-73
2023/03/27 06:37:17;;;;;;;12.75;2.22;;;3.20;99.90;;;;;;5004101;28;20037;-75
2023/03/27 06:39:43;;;;;;;11.68;1.90;;;3.20;99.90;;;;;;5004484;28;20030;-74
2023/03/27 06:42:09;;;;;;;8.98;2.28;;;3.20;99.90;;;;;;5006114;28;20054;-74
2023/03/27 06:44:35;;;;;;;12.15;1.88;;;3.20;99.90;;;;;;4983479;28;20558;-74
2023/03/27 06:47:00;;;;;;;11.25;2.42;;;3.20;99.90;;;;;;5001690;28;20113;-74
2023/03/27 06:49:26;;;;;;;7.40;2.00;;;3.30;99.90;;;;;;4999246;28;20053;-73
2023/03/27 06:51:52;;;;;;;5.72;1.92;;;3.30;99.90;;;;;;4985253;28;20034;-74
2023/03/27 06:54:18;;;;;;;9.82;1.67;;;3.30;99.90;;;;;;5003196;28;20037;-73
2023/03/27 06:56:43;;;;;;;14.13;2.00;;;3.30;99.90;;;;;;5000309;28;20472;-73
2023/03/27 06:59:10;;;;;;;15.63;2.10;;;3.20;99.90;;;;;;5005661;28;20434;-73
2023/03/27 07:01:35;;;;;;;8.40;1.85;;;3.30;99.90;;;;;;4988947;28;20025;-73
2023/03/27 07:04:01;;;;;;;13.18;1.77;;;3.20;99.90;;;;;;5004775;28;20057;-73
2023/03/27 07:06:27;;;;;;;6.63;1.40;;;3.20;99.90;;;;;;5007883;28;20422;-72
2023/03/27 07:08:53;;;;;;;8.82;1.40;;;3.10;99.90;;;;;;5003948;28;20574;-73
2023/03/27 07:11:18;;;;;;;11.20;1.52;;;3.10;99.90;;;;;;5006607;28;20029;-73
2023/03/27 07:13:44;;;;;;;13.98;2.80;;;2.90;99.90;;;;;;5008418;28;20038;-73
2023/03/27 07:16:10;;;;;;;6.10;1.60;;;2.90;99.90;;;;;;4985780;28;20049;-73
2023/03/27 07:18:36;;;;;;;8.25;1.48;;;2.90;99.90;;;;;;5006711;28;20045;-73
2023/03/27 07:21:02;;;;;;;8.85;2.08;;;3.00;99.90;;;;;;4982984;28;20478;-72
2023/03/27 07:23:28;;;;;;;8.20;1.55;;;3.00;99.90;;;;;;5010746;28;20093;-73
2023/03/27 07:25:57;;;;;;;13.15;2.58;;;2.90;99.90;;;;;;5004435;28;20049;-72
2023/03/27 07:28:23;;;;;;;5.45;1.65;;;2.90;99.90;;;;;;5004884;28;20057;-72
2023/03/27 07:30:48;;;;;;;12.85;2.05;;;2.90;99.90;;;;;;5009592;28;20029;-73
2023/03/27 07:33:14;;;;;;;10.30;1.65;;;2.90;99.90;;;;;;4988654;28;20026;-73
2023/03/27 07:35:44;;;;;;;9.95;1.65;;;2.90;99.90;;;;;;5008425;28;20031;-73
2023/03/27 07:38:10;;;;;;;8.07;1.80;;;2.90;99.90;;;;;;5011578;28;20022;-73
2023/03/27 07:40:36;;;;;;;10.85;1.85;;;2.90;99.90;;;;;;4994479;28;20053;-73
2023/03/27 07:43:05;;;;;;;13.60;2.35;;;3.00;99.90;;;;;;5005941;28;20494;-74
2023/03/27 07:45:32;;;;;;;8.40;1.42;;;3.00;99.90;;;;;;5012194;28;20028;-72
2023/03/27 07:48:07;;;;;;;7.82;1.75;;;3.00;99.90;;;;;;4992763;28;20406;-73
2023/03/27 07:50:34;;;;;;;11.30;1.77;;;3.00;99.90;;;;;;5011958;28;20485;-73
2023/03/27 07:53:00;;;;;;;5.47;1.52;;;3.00;99.90;;;;;;4991235;28;20096;-75
2023/03/27 07:55:28;;;;;;;10.65;2.28;;;3.00;99.90;;;;;;5009757;28;20018;-74
2023/03/27 07:57:54;;;;;;;11.27;1.75;;;3.00;99.90;;;;;;4991164;28;20026;-75
2023/03/27 08:00:21;;;;;;;8.75;2.28;;;3.20;99.90;;;;;;5010951;28;20033;-75
2023/03/27 08:02:49;;;;;;;13.18;2.80;;;3.20;99.90;;;;;;5009279;28;20125;-77
2023/03/27 08:05:15;;;;;;;12.48;2.90;;;3.30;99.90;;;;;;5007167;28;20018;-76
2023/03/27 08:07:44;;;;;;;12.88;1.80;;;3.30;99.90;;;;;;5008109;28;20114;-75
2023/03/27 08:10:11;;;;;;;10.93;1.70;;;3.30;99.90;;;;;;4987653;28;20541;-74
2023/03/27 08:12:37;;;;;;;9.48;1.98;;;3.40;99.90;;;;;;5008261;28;20022;-73
2023/03/27 08:15:04;;;;;;;9.27;2.20;;;3.40;99.90;;;;;;4993650;28;20102;-73
2023/03/27 08:17:32;;;;;;;12.93;1.45;;;3.20;99.90;;;;;;5003222;28;20038;-73
2023/03/27 08:19:59;;;;;;;18.13;2.63;;;3.20;99.90;;;;;;4989186;28;20048;-74
2023/03/27 08:22:24;;;;;;;8.77;2.22;;;3.30;99.90;;;;;;4991643;28;20054;-73
2023/03/27 08:24:50;;;;;;;6.25;2.00;;;3.40;99.90;;;;;;5005203;28;20057;-73
2023/03/27 08:27:17;;;;;;;11.38;1.90;;;3.40;99.90;;;;;;5005208;28;20025;-75
2023/03/27 08:29:43;;;;;;;11.80;1.75;;;3.40;99.90;;;;;;4987968;28;20033;-72
2023/03/27 08:32:10;;;;;;;6.50;1.77;;;3.40;99.90;;;;;;5002939;28;20025;-74
2023/03/27 08:34:39;;;;;;;10.60;1.58;;;3.50;99.90;;;;;;5006701;28;20097;-74
2023/03/27 08:37:05;;;;;;;8.48;1.83;;;3.50;99.90;;;;;;5002207;28;20026;-73
2023/03/27 08:39:31;;;;;;;11.73;2.08;;;3.50;99.90;;;;;;5003557;28;20384;-73
2023/03/27 08:42:03;;;;;;;12.10;2.10;;;3.60;99.90;;;;;;5002433;28;20041;-74
2023/03/27 08:44:31;;;;;;;11.32;1.92;;;3.60;99.90;;;;;;4983176;28;20033;-72
2023/03/27 08:47:02;;;;;;;8.57;1.33;;;3.60;99.90;;;;;;4997682;28;20039;-73
2023/03/27 08:49:36;;;;;;;6.63;1.35;;;3.70;99.90;;;;;;4999776;28;20085;-73
2023/03/27 08:52:14;;;;;;;10.38;1.92;;;3.60;99.90;;;;;;4987134;28;20030;-73
2023/03/27 08:54:43;;;;;;;7.95;1.52;;;3.70;99.90;;;;;;4987867;28;20050;-75
2023/03/27 08:57:18;;;;;;;4.35;1.20;;;3.80;99.90;;;;;;5003252;28;20409;-76
2023/03/27 08:59:44;;;;;;;6.25;1.80;;;3.80;99.90;;;;;;5004672;28;20553;-75
2023/03/27 09:02:28;;;;;;;6.50;2.33;;;3.90;99.90;;;;;;5001974;28;20065;-74
2023/03/27 09:05:05;;;;;;;8.57;1.60;;;4.00;99.90;;;;;;4996114;28;20030;-74
2023/03/27 09:07:44;;;;;;;12.05;1.83;;;4.10;99.90;;;;;;5005050;28;20080;-73
2023/03/27 09:10:29;;;;;;;6.25;2.13;;;4.20;99.90;;;;;;5007275;28;20060;-73
2023/03/27 09:13:32;;;;;;;8.02;1.60;;;4.10;99.90;;;;;;5009722;28;20022;-73
2023/03/27 09:16:09;;;;;;;6.97;1.95;;;4.10;99.90;;;;;;4997220;28;20036;-73
2023/03/27 09:18:48;;;;;;;5.38;1.23;;;4.10;99.90;;;;;;5001048;28;20025;-72
2023/03/27 09:21:22;;;;;;;7.18;1.55;;;4.20;99.90;;;;;;4993825;28;20430;-72
2023/03/27 09:23:49;;;;;;;5.00;1.77;;;4.30;99.90;;;;;;4999931;28;20028;-73
2023/03/27 09:26:40;;;;;;;5.38;1.55;;;4.30;99.90;;;;;;4984038;28;20022;-73
2023/03/27 09:29:21;;;;;;;7.90;1.42;;;4.30;99.90;;;;;;5001505;28;20042;-73
2023/03/27 09:31:52;;;;;;;7.00;1.27;;;4.40;99.90;;;;;;5006191;28;20065;-73
2023/03/27 09:34:27;;;;;;;6.70;1.35;;;4.40;99.90;;;;;;5004846;28;20034;-73
2023/03/27 09:36:54;;;;;;;9.70;1.75;;;4.40;99.90;;;;;;5001539;28;20498;-73
2023/03/27 09:39:28;;;;;;;4.75;1.65;;;4.40;99.90;;;;;;5005749;28;20065;-73
2023/03/27 09:42:08;;;;;;;6.47;1.60;;;4.40;99.90;;;;;;5001458;28;20541;-73
2023/03/27 09:44:39;;;;;;;7.70;1.80;;;4.50;99.90;;;;;;5005847;28;20068;-73
2023/03/27 09:47:14;;;;;;;6.78;1.90;;;4.50;99.90;;;;;;4990680;28;20441;-73
2023/03/27 09:49:48;;;;;;;4.50;1.42;;;4.70;99.90;;;;;;5002146;28;20038;-73
2023/03/27 09:52:43;;;;;;;8.50;2.15;;;4.70;99.90;;;;;;4998647;28;20019;-73
2023/03/27 09:55:25;;;;;;;8.82;1.60;;;4.80;99.90;;;;;;4997946;28;20034;-73
2023/03/27 09:57:59;;;;;;;14.88;2.08;;;4.90;99.90;;;;;;5006559;28;20026;-73
2023/03/27 10:00:33;;;;;;;9.27;1.95;;;5.00;99.90;;;;;;5006850;28;20503;-73
2023/03/27 10:03:16;;;;;;;8.35;2.15;;;5.10;99.90;;;;;;5005873;23;20042;-76
2023/03/27 10:05:43;;;;;;;11.68;2.58;;;5.30;99.90;;;;;;5023526;28;20039;-76
2023/03/27 10:08:36;;;;;;;5.97;1.33;;;5.40;99.20;;;;;;5023553;28;20131;-76
2023/03/27 10:11:07;;;;;;;9.18;1.10;;;5.40;99.30;;;;;;5010049;28;20517;-76
2023/03/27 10:13:33;;;;;;;4.45;1.23;;;5.50;98.90;;;;;;5008281;28;20030;-76
2023/03/27 10:16:01;;;;;;;6.50;1.20;;;5.70;97.90;;;;;;5007316;28;20565;-75
2023/03/27 10:18:30;;;;;;;4.68;2.17;;;5.80;97.20;;;;;;5006232;28;20033;-76
2023/03/27 10:21:14;;;;;;;8.15;1.38;;;6.00;97.20;;;;;;5122756;27;20115;-75
2023/03/27 10:23:48;;;;;;;6.75;1.42;;;6.00;96.70;;;;;;5111848;28;20016;-76
2023/03/27 10:26:24;;;;;;;;;;;5.90;96.60;;;;;;5106603;28;20492;-76
2023/03/27 10:28:51;;;;;;;4.05;1.20;;;5.90;95.80;;;;;;5111166;28;19940;-77
2023/03/27 10:31:36;;;;;;;4.88;0.73;;;6.00;95.00;;;;;;5110130;28;20070;-77
2023/03/27 10:34:05;;;;;;;4.05;0.90;;;6.10;94.30;;;;;;5103801;28;20016;-77
2023/03/27 10:36:38;;;;;;;4.18;1.00;;;6.00;93.00;;;;;;5104180;28;20035;-77
2023/03/27 10:39:12;;;;;;;11.60;1.70;;;5.90;94.20;;;;;;5114746;28;20032;-76
2023/03/27 10:41:39;;;;;;;4.40;0.90;;;5.90;93.00;;;;;;5103064;28;20613;-78
2023/03/27 10:44:16;;;;;;;7.50;1.10;;;6.00;92.70;;;;;;5104885;28;20081;-77
2023/03/27 10:46:42;;;;;;;7.20;1.45;;;5.90;91.70;;;;;;5104393;28;20416;-76
2023/03/27 10:49:29;;;;;;;6.70;1.00;;;6.10;91.70;;;;;;5105700;28;20058;-77
2023/03/27 10:51:57;;;;;;;5.18;1.27;;;6.10;90.20;;;;;;5107388;28;20024;-76
2023/03/27 10:54:35;;;;;;;4.05;1.00;;;6.20;90.00;;;;;;5114038;28;20059;-76
2023/03/27 10:57:17;;;;;;;5.03;1.20;;;6.20;87.80;;;;;;5106493;28;20058;-76
2023/03/27 10:59:59;;;;;;;8.65;1.00;;;6.10;85.70;;;;;;5104474;28;20034;-76
2023/03/27 11:02:31;;;;;;;3.50;0.80;;;6.10;85.10;;;;;;5100199;28;20039;-76
2023/03/27 11:05:20;;;;;;;4.85;0.80;;;6.20;86.60;;;;;;5110282;28;20039;-76
2023/03/27 11:07:56;;;;;;;4.25;0.95;;;6.20;87.90;;;;;;5102011;28;20055;-77
2023/03/27 11:10:29;;;;;;;2.38;0.80;;;6.30;88.00;;;;;;5109584;28;20027;-76
2023/03/27 11:13:01;;;;;;;4.43;1.13;;;6.20;85.40;;;;;;5102270;28;20579;-77
2023/03/27 11:15:30;;;;;;;4.28;0.90;;;6.20;83.60;;;;;;5107602;28;20121;-77
2023/03/27 11:18:16;;;;;;;4.72;1.02;;;6.20;85.00;;;;;;5113822;28;20020;-76
2023/03/27 11:20:44;;;;;;;4.80;1.38;;;6.20;88.20;;;;;;5110980;28;20035;-77
2023/03/27 11:23:50;;;;;;;7.65;1.20;;;6.20;87.80;;;;;;5103711;28;20101;-76
2023/03/27 11:26:18;;;;;;;4.93;0.90;;;6.10;87.70;;;;;;5105063;28;20096;-76
2023/03/27 11:29:08;;;;;;;9.02;1.27;;;6.10;87.90;;;;;;5105291;28;20031;-77
2023/03/27 11:31:44;;;;;;;5.30;1.00;;;6.30;87.90;;;;;;5098141;28;20035;-77
2023/03/27 11:34:19;;;;;;;3.33;0.82;;;6.40;86.90;;;;;;5091745;28;20020;-76
2023/03/27 11:37:14;;;;;;;4.40;1.27;;;6.40;85.80;;;;;;5088082;28;20016;-76
2023/03/27 11:39:54;;;;;;;6.05;0.80;;;6.60;84.90;;;;;;5090658;28;20036;-76
2023/03/27 11:42:25;;;;;;;3.97;0.98;;;6.50;85.40;;;;;;5088641;28;20471;-76
2023/03/27 11:44:52;;;;;;;6.88;1.20;;;6.50;82.80;;;;;;5089086;28;20061;-76
2023/03/27 11:47:32;;;;;;;5.78;1.05;;;6.50;82.80;;;;;;5091095;28;20452;-76
2023/03/27 11:50:49;;;;;;;4.55;1.20;;;6.70;81.70;;;;;;5090245;28;20038;-76
2023/03/27 11:53:52;;;;;;;5.90;1.08;;;6.80;79.80;;;;;;5069725;28;20048;-76
2023/03/27 11:56:43;;;;;;;2.70;1.13;;;6.90;78.50;;;;;;5077143;28;20058;-76
2023/03/27 11:59:33;;;;;;;3.95;1.08;;;7.00;80.10;;;;;;5082788;28;20081;-76
2023/03/27 12:02:07;;;;;;;5.15;0.80;;;7.10;77.60;;;;;;5093150;28;20064;-77
2023/03/27 12:04:43;;;;;;;3.97;0.85;;;7.10;77.20;;;;;;5108728;27;20345;-75
2023/03/27 12:07:22;;;;;;;2.40;0.77;;;7.10;77.30;;;;;;5095795;28;20024;-77
2023/03/27 12:10:10;;;;;;;7.38;1.17;;;7.10;78.00;;;;;;5089727;28;20028;-76
2023/03/27 12:13:07;;;;;;;1.67;0.80;;;7.10;78.80;;;;;;5109628;27;20388;-77
2023/03/27 12:15:43;;;;;;;3.78;0.82;;;7.20;79.20;;;;;;5084099;28;20514;-77
2023/03/27 12:18:14;;;;;;;4.53;1.20;;;7.30;78.00;;;;;;5083618;28;20504;-75
2023/03/27 12:21:12;;;;;;;2.80;0.80;;;7.30;76.40;;;;;;5084462;28;20480;-75
2023/03/27 12:23:44;;;;;;;5.85;0.80;;;7.40;76.40;;;;;;5105493;27;20043;-76
2023/03/27 12:26:28;;;;;;;3.60;0.82;;;7.60;76.10;;;;;;5095193;28;20464;-76
2023/03/27 12:29:17;;;;;;;3.15;1.00;;;7.50;73.10;;;;;;5089826;28;20068;-76
2023/03/27 12:31:58;;;;;;;3.72;0.98;;;7.30;75.00;;;;;;5091070;28;20021;-77
2023/03/27 12:34:29;;;;;;;3.83;0.80;;;7.40;76.20;;;;;;5083956;28;20054;-77
2023/03/27 12:36:58;;;;;;;3.08;0.82;;;7.30;75.80;;;;;;5090423;28;20052;-76
2023/03/27 12:39:26;;;;;;;5.25;1.02;;;7.20;74.20;;;;;;5091918;28;20038;-76
2023/03/27 12:41:52;;;;;;;3.65;0.60;;;7.20;75.20;;;;;;5086115;28;20712;-76
2023/03/27 12:44:27;;;;;;;3.88;0.85;;;7.30;76.10;;;;;;5088593;28;20134;-76
2023/03/27 12:47:14;;;;;;;5.55;1.15;;;7.20;74.50;;;;;;5091333;28;20484;-75
2023/03/27 12:49:45;;;;;;;5.00;1.10;;;7.30;74.00;;;;;;5087585;28;20449;-76
2023/03/27 12:52:11;;;;;;;8.57;1.20;;;7.40;74.50;;;;;;5090825;28;20032;-76
2023/03/27 12:54:38;;;;;;;7.05;1.05;;;7.40;73.60;;;;;;5096999;28;20016;-76
2023/03/27 12:57:06;;;;;;;2.05;0.70;;;7.50;75.00;;;;;;5087191;28;20039;-76
2023/03/27 12:59:47;;;;;;;4.03;0.98;;;7.60;73.90;;;;;;5090191;28;20624;-76
2023/03/27 13:02:34;;;;;;;6.65;2.50;;;7.70;71.90;;;;;;5096935;28;20024;-76
2023/03/27 13:05:37;;;;;;;4.22;1.33;;;7.70;70.40;;;;;;5089183;28;20095;-77
2023/03/27 13:08:20;;;;;;;7.57;2.10;;;7.70;70.30;;;;;;5088845;28;20422;-77
2023/03/27 13:11:08;;;;;;;8.63;4.10;;;7.70;70.10;;;;;;5091308;28;20028;-76
2023/03/27 13:13:52;;;;;;;6.30;2.42;;;7.80;70.40;;;;;;5089145;28;20487;-75
2023/03/27 13:16:39;;;;;;;4.47;2.88;;;7.70;71.20;;;;;;5089787;28;20115;-77
2023/03/27 13:19:28;;;;;;;1.95;0.90;;;7.70;72.10;;;;;;5090109;28;20028;-77
2023/03/27 13:22:09;;;;;;;5.88;1.02;;;7.70;73.30;;;;;;5093364;28;20024;-77